Time;durP1;ratioP1;P1;durP2;ratioP2;P2;SDS_P1;SDS_P2;PMS_P1;PMS_P2;Temp;Humidity;BMP_temperature;BMP_pressure;BME280_temperature;BME280_humidity;BME280_pressure;Samples;Min_cycle;Max_cycle;Signal;HPM_P1;HPM_P2
2023/05/01 00:00:43;;;;;;;6.37;5.87;;;;;;;;;;5032409;28;20889;-59
2023/05/01 00:03:09;;;;;;;6.10;5.60;;;;;;;;;;5032562;28;20468;-61
2023/05/01 00:05:38;;;;;;;6.30;5.80;;;;;;;;;;5032168;28;20884;-61
2023/05/01 00:08:04;;;;;;;8.20;6.80;;;;;;;;;;5032324;28;20447;-59
2023/05/01 00:10:30;;;;;;;6.27;5.70;;;;;;;;;;5032258;28;20419;-60
2023/05/01 00:12:56;;;;;;;6.60;6.20;;;;;;;;;;5032023;28;20537;-60
2023/05/01 00:15:22;;;;;;;6.30;5.90;;;;;;;;;;5032092;28;20437;-60
2023/05/01 00:17:48;;;;;;;6.33;5.97;;;;;;;;;;5032183;28;20489;-59
2023/05/01 00:20:14;;;;;;;7.43;6.83;;;;;;;;;;5031747;28;20979;-60
2023/05/01 00:22:42;;;;;;;6.80;5.87;;;;;;;;;;5032246;28;20434;-61
2023/05/01 00:25:09;;;;;;;6.30;6.00;;;;;;;;;;5031773;28;20424;-60
2023/05/01 00:27:35;;;;;;;6.37;6.00;;;;;;;;;;5031995;28;20547;-59
2023/05/01 00:30:02;;;;;;;6.70;6.40;;;;;;;;;;5031920;28;20453;-59
2023/05/01 00:32:28;;;;;;;7.03;6.43;;;;;;;;;;5031805;28;20554;-60
2023/05/01 00:34:56;;;;;;;6.40;6.10;;;;;;;;;;5031891;28;20408;-59
2023/05/01 00:37:22;;;;;;;6.13;5.90;;;;;;;;;;5031865;28;20915;-60
2023/05/01 00:39:48;;;;;;;6.60;6.30;;;;;;;;;;5031771;28;20432;-59
2023/05/01 00:42:14;;;;;;;6.47;6.13;;;;;;;;;;5031931;28;20435;-59
2023/05/01 00:44:40;;;;;;;8.33;6.77;;;;;;;;;;5031711;28;20412;-59
2023/05/01 00:47:06;;;;;;;6.50;6.10;;;;;;;;;;5031646;28;20837;-60
2023/05/01 00:49:32;;;;;;;5.87;5.57;;;;;;;;;;5031600;28;20506;-60
2023/05/01 00:51:58;;;;;;;6.90;6.30;;;;;;;;;;5031728;28;20518;-59
2023/05/01 00:54:27;;;;;;;6.77;6.43;;;;;;;;;;5031727;28;20477;-59
2023/05/01 00:56:53;;;;;;;8.73;6.70;;;;;;;;;;5031321;28;20922;-60
2023/05/01 00:59:20;;;;;;;6.37;6.07;;;;;;;;;;5031515;28;20439;-61
2023/05/01 01:01:46;;;;;;;7.33;6.90;;;;;;;;;;5031762;28;20419;-60
2023/05/01 01:04:12;;;;;;;8.07;7.47;;;;;;;;;;5031405;28;20489;-60
2023/05/01 01:06:38;;;;;;;7.37;6.43;;;;;;;;;;5031567;28;20412;-60
2023/05/01 01:09:31;;;;;;;7.23;6.63;;;;;;;;;;5030704;28;20424;-60
2023/05/01 01:11:57;;;;;;;7.30;6.90;;;;;;;;;;5032874;28;20498;-60
2023/05/01 01:14:31;;;;;;;7.33;6.83;;;;;;;;;;5035221;28;20911;-60
2023/05/01 01:17:02;;;;;;;6.90;6.20;;;;;;;;;;5035279;28;20539;-60
2023/05/01 01:19:34;;;;;;;6.67;6.37;;;;;;;;;;5035215;28;20848;-59
2023/05/01 01:22:07;;;;;;;6.50;6.20;;;;;;;;;;5035250;28;20923;-60
2023/05/01 01:24:33;;;;;;;6.90;6.50;;;;;;;;;;5035137;28;20418;-59
2023/05/01 01:26:59;;;;;;;7.50;7.00;;;;;;;;;;5035224;28;20495;-59
2023/05/01 01:29:43;;;;;;;6.83;6.53;;;;;;;;;;5035085;28;20445;-60
2023/05/01 01:32:38;;;;;;;8.33;7.60;;;;;;;;;;5035031;28;20505;-61
2023/05/01 01:35:07;;;;;;;6.97;6.47;;;;;;;;;;4964883;28;20451;-60
2023/05/01 01:37:40;;;;;;;8.00;7.60;;;;;;;;;;5034939;28;20878;-60
2023/05/01 01:40:09;;;;;;;9.40;6.87;;;;;;;;;;5035008;28;20414;-60
2023/05/01 01:42:38;;;;;;;7.37;6.70;;;;;;;;;;5034877;28;20435;-60
2023/05/01 01:45:11;;;;;;;7.90;7.23;;;;;;;;;;5034777;28;20426;-59
2023/05/01 01:47:40;;;;;;;6.83;6.50;;;;;;;;;;5034818;28;20466;-60
2023/05/01 01:50:07;;;;;;;8.37;7.57;;;;;;;;;;5034728;28;20443;-59
2023/05/01 01:52:34;;;;;;;7.70;7.00;;;;;;;;;;5034522;28;20506;-60
2023/05/01 01:55:04;;;;;;;12.60;6.80;;;;;;;;;;5034554;28;20428;-60
2023/05/01 01:57:30;;;;;;;7.73;7.23;;;;;;;;;;5033213;28;20483;-59
2023/05/01 01:59:56;;;;;;;8.23;7.67;;;;;;;;;;5034609;28;20562;-60
2023/05/01 02:02:22;;;;;;;7.00;6.40;;;;;;;;;;5034279;28;20833;-60
2023/05/01 02:04:49;;;;;;;7.47;7.00;;;;;;;;;;5034547;28;20500;-60
2023/05/01 02:07:19;;;;;;;7.77;7.17;;;;;;;;;;5034548;28;20417;-59
2023/05/01 02:09:45;;;;;;;10.60;7.07;;;;;;;;;;5034385;28;20910;-60
2023/05/01 02:12:14;;;;;;;7.40;6.83;;;;;;;;;;5034647;28;20483;-60
2023/05/01 02:14:41;;;;;;;14.63;7.10;;;;;;;;;;5034314;28;20879;-60
2023/05/01 02:17:09;;;;;;;7.90;7.33;;;;;;;;;;5034369;28;20481;-59
2023/05/01 02:19:39;;;;;;;8.40;7.70;;;;;;;;;;5034209;28;20427;-61
2023/05/01 02:22:05;;;;;;;7.53;6.93;;;;;;;;;;5032974;28;20418;-59
2023/05/01 02:24:32;;;;;;;7.40;7.00;;;;;;;;;;5034069;28;20450;-59
2023/05/01 02:27:05;;;;;;;8.00;7.30;;;;;;;;;;5034209;28;20412;-60
2023/05/01 02:29:32;;;;;;;7.90;7.40;;;;;;;;;;5034164;28;20439;-59
2023/05/01 02:31:59;;;;;;;6.90;6.50;;;;;;;;;;5034152;28;20463;-59
2023/05/01 02:34:25;;;;;;;8.27;7.67;;;;;;;;;;5034069;28;20909;-59
2023/05/01 02:36:51;;;;;;;7.40;6.90;;;;;;;;;;5034313;28;20391;-59
2023/05/01 02:39:19;;;;;;;7.87;7.27;;;;;;;;;;5034089;28;20435;-59
2023/05/01 02:41:45;;;;;;;8.40;7.60;;;;;;;;;;5033936;28;20446;-59
2023/05/01 02:44:12;;;;;;;12.17;7.50;;;;;;;;;;5034089;28;20821;-59
2023/05/01 02:46:38;;;;;;;7.47;7.00;;;;;;;;;;5033873;28;20439;-59
2023/05/01 02:49:05;;;;;;;9.43;7.77;;;;;;;;;;5034158;28;20414;-59
2023/05/01 02:51:34;;;;;;;8.00;7.50;;;;;;;;;;5033839;28;20432;-60
2023/05/01 02:54:00;;;;;;;8.73;7.73;;;;;;;;;;5033832;28;20423;-60
2023/05/01 02:56:29;;;;;;;8.47;7.80;;;;;;;;;;5033760;28;20685;-60
2023/05/01 02:58:58;;;;;;;8.07;7.47;;;;;;;;;;5034067;28;20424;-60
2023/05/01 03:01:27;;;;;;;7.20;6.80;;;;;;;;;;5033714;28;20416;-60
2023/05/01 03:03:53;;;;;;;7.93;7.03;;;;;;;;;;5033714;28;20431;-63
2023/05/01 03:06:19;;;;;;;8.23;7.53;;;;;;;;;;5033650;28;20415;-60
2023/05/01 03:08:46;;;;;;;8.50;7.90;;;;;;;;;;5033460;28;20951;-60
2023/05/01 03:11:13;;;;;;;9.00;8.10;;;;;;;;;;5033556;28;20459;-60
2023/05/01 03:13:39;;;;;;;8.47;7.90;;;;;;;;;;5033137;28;20474;-59
2023/05/01 03:16:05;;;;;;;8.70;7.93;;;;;;;;;;5033502;28;20400;-59
2023/05/01 03:18:31;;;;;;;8.07;7.60;;;;;;;;;;5033438;28;20407;-63
2023/05/01 03:20:57;;;;;;;8.73;8.03;;;;;;;;;;5033211;28;20439;-60
2023/05/01 03:23:23;;;;;;;8.93;8.07;;;;;;;;;;5033292;28;20416;-60
2023/05/01 03:25:49;;;;;;;8.77;7.73;;;;;;;;;;5033072;28;20443;-59
2023/05/01 03:28:17;;;;;;;7.97;7.43;;;;;;;;;;5033140;28;20416;-59
2023/05/01 03:30:44;;;;;;;8.43;7.90;;;;;;;;;;5033042;28;20526;-59
2023/05/01 03:33:10;;;;;;;8.60;8.00;;;;;;;;;;5032884;28;21006;-59
2023/05/01 03:35:36;;;;;;;7.73;7.13;;;;;;;;;;5033345;28;20812;-60
2023/05/01 03:38:02;;;;;;;12.97;8.37;;;;;;;;;;5032898;28;20412;-59
2023/05/01 03:40:28;;;;;;;8.57;7.77;;;;;;;;;;5033044;28;21064;-59
2023/05/01 03:42:57;;;;;;;10.87;8.93;;;;;;;;;;5033107;28;20435;-59
2023/05/01 03:45:25;;;;;;;7.80;7.03;;;;;;;;;;5032920;28;20451;-59
2023/05/01 03:47:51;;;;;;;9.37;8.67;;;;;;;;;;5032752;28;20419;-59
2023/05/01 03:50:17;;;;;;;8.43;7.93;;;;;;;;;;5032723;28;20491;-59
2023/05/01 03:52:43;;;;;;;8.13;7.53;;;;;;;;;;5032641;28;20616;-59
2023/05/01 03:55:12;;;;;;;10.07;8.13;;;;;;;;;;5032658;28;20766;-59
2023/05/01 03:57:38;;;;;;;8.40;7.80;;;;;;;;;;5032673;28;20508;-59
2023/05/01 04:00:05;;;;;;;9.40;8.70;;;;;;;;;;5032866;28;20427;-59
2023/05/01 04:02:31;;;;;;;9.60;8.70;;;;;;;;;;5032606;28;20493;-59
2023/05/01 04:04:57;;;;;;;9.10;8.30;;;;;;;;;;5032481;28;20436;-59
2023/05/01 04:07:23;;;;;;;9.77;8.00;;;;;;;;;;5032590;28;20491;-60
2023/05/01 04:09:54;;;;;;;8.77;8.20;;;;;;;;;;5032366;28;20607;-59
2023/05/01 04:12:20;;;;;;;11.07;8.37;;;;;;;;;;5032576;28;20459;-59
2023/05/01 04:14:46;;;;;;;8.30;7.80;;;;;;;;;;5032367;28;20954;-60
2023/05/01 04:17:12;;;;;;;8.83;7.77;;;;;;;;;;5032401;28;20475;-58
2023/05/01 04:19:39;;;;;;;8.30;7.80;;;;;;;;;;5031024;28;20428;-60
2023/05/01 04:22:05;;;;;;;11.20;8.13;;;;;;;;;;5032150;28;20780;-61
2023/05/01 04:24:31;;;;;;;9.50;8.63;;;;;;;;;;5032176;28;20419;-60
2023/05/01 04:26:57;;;;;;;9.80;9.00;;;;;;;;;;5032128;28;20450;-60
2023/05/01 04:29:26;;;;;;;8.80;8.20;;;;;;;;;;5032321;28;20437;-60
2023/05/01 04:31:52;;;;;;;9.53;7.50;;;;;;;;;;5032107;28;20446;-61
2023/05/01 04:34:18;;;;;;;10.83;9.07;;;;;;;;;;5032312;28;20412;-59
2023/05/01 04:36:44;;;;;;;9.20;8.30;;;;;;;;;;5032251;28;20922;-59
2023/05/01 04:39:10;;;;;;;9.10;8.23;;;;;;;;;;5032044;28;20408;-59
2023/05/01 04:41:36;;;;;;;13.10;9.60;;;;;;;;;;5030919;28;20420;-60
2023/05/01 04:44:02;;;;;;;8.97;8.37;;;;;;;;;;5032329;28;20423;-60
2023/05/01 04:46:28;;;;;;;8.57;8.00;;;;;;;;;;5036305;28;20491;-60
2023/05/01 04:48:54;;;;;;;11.60;9.00;;;;;;;;;;5034870;28;20452;-60
2023/05/01 04:51:20;;;;;;;10.23;9.33;;;;;;;;;;5036032;28;20903;-61
2023/05/01 04:53:46;;;;;;;11.30;10.27;;;;;;;;;;5036084;28;20463;-60
2023/05/01 04:56:12;;;;;;;10.70;9.60;;;;;;;;;;5036092;28;20515;-59
2023/05/01 04:58:38;;;;;;;12.30;11.20;;;;;;;;;;5035803;28;20856;-59
2023/05/01 05:01:04;;;;;;;11.33;10.27;;;;;;;;;;5035839;28;20427;-59
2023/05/01 05:03:30;;;;;;;10.60;9.80;;;;;;;;;;5035774;28;20415;-59
2023/05/01 05:05:56;;;;;;;11.17;10.27;;;;;;;;;;5035807;28;20443;-59
2023/05/01 05:08:22;;;;;;;11.67;10.57;;;;;;;;;;5035650;28;20843;-59
2023/05/01 05:10:48;;;;;;;11.33;10.30;;;;;;;;;;5035629;28;20435;-59
2023/05/01 05:13:14;;;;;;;10.80;9.80;;;;;;;;;;5035653;28;20458;-60
2023/05/01 05:15:40;;;;;;;11.57;10.47;;;;;;;;;;5035779;28;20412;-59
2023/05/01 05:18:06;;;;;;;13.23;10.70;;;;;;;;;;5035516;28;20435;-58
2023/05/01 05:20:32;;;;;;;10.70;9.90;;;;;;;;;;5035671;28;20414;-59
2023/05/01 05:22:58;;;;;;;11.50;10.60;;;;;;;;;;5035406;28;20436;-62
2023/05/01 05:25:24;;;;;;;12.40;11.27;;;;;;;;;;5035636;28;20416;-60
2023/05/01 05:27:50;;;;;;;11.60;10.77;;;;;;;;;;5034148;28;20486;-59
2023/05/01 05:30:18;;;;;;;12.70;11.60;;;;;;;;;;5035311;28;20419;-59
2023/05/01 05:32:46;;;;;;;12.50;11.60;;;;;;;;;;5035272;28;20562;-59
2023/05/01 05:35:12;;;;;;;13.90;12.13;;;;;;;;;;5035604;28;20469;-59
2023/05/01 05:37:38;;;;;;;13.00;11.90;;;;;;;;;;5035398;28;20416;-60
2023/05/01 05:40:04;;;;;;;13.03;11.83;;;;;;;;;;5035220;28;20439;-60
2023/05/01 05:42:30;;;;;;;12.83;11.73;;;;;;;;;;5035146;28;20418;-60
2023/05/01 05:44:59;;;;;;;15.17;13.77;;;;;;;;;;5035257;28;20435;-60
2023/05/01 05:47:25;;;;;;;14.27;12.77;;;;;;;;;;5035067;28;20430;-59
2023/05/01 05:49:51;;;;;;;14.73;13.20;;;;;;;;;;5035006;28;20581;-59
2023/05/01 05:52:17;;;;;;;15.57;13.90;;;;;;;;;;5034878;28;20459;-59
2023/05/01 05:54:43;;;;;;;19.90;17.90;;;;;;;;;;5034910;28;20423;-59
2023/05/01 05:57:09;;;;;;;19.77;14.20;;;;;;;;;;5034281;28;20428;-59
2023/05/01 05:59:36;;;;;;;20.20;13.80;;;;;;;;;;5034936;28;20530;-59
2023/05/01 06:02:02;;;;;;;15.57;14.10;;;;;;;;;;5034739;28;20446;-59
2023/05/01 06:04:28;;;;;;;15.90;14.20;;;;;;;;;;5034733;28;20784;-61
2023/05/01 06:06:54;;;;;;;14.80;13.50;;;;;;;;;;5034803;28;20469;-58
2023/05/01 06:09:20;;;;;;;15.50;14.10;;;;;;;;;;5034832;28;20400;-58
2023/05/01 06:11:47;;;;;;;16.60;14.90;;;;;;;;;;5034392;28;20424;-58
2023/05/01 06:14:13;;;;;;;18.20;14.50;;;;;;;;;;5033206;28;20804;-58
2023/05/01 06:16:39;;;;;;;14.77;13.43;;;;;;;;;;5034464;28;20400;-58
2023/05/01 06:19:09;;;;;;;13.97;12.90;;;;;;;;;;5034366;28;20557;-58
2023/05/01 06:21:35;;;;;;;15.43;13.83;;;;;;;;;;5034248;28;20926;-58
2023/05/01 06:24:01;;;;;;;15.67;14.10;;;;;;;;;;5034501;28;20444;-57
2023/05/01 06:26:27;;;;;;;18.10;16.30;;;;;;;;;;5034156;28;20431;-57
2023/05/01 06:28:53;;;;;;;18.07;16.27;;;;;;;;;;5034399;28;20439;-58
2023/05/01 06:31:19;;;;;;;16.83;15.10;;;;;;;;;;5034273;28;20416;-57
2023/05/01 06:33:45;;;;;;;18.17;14.90;;;;;;;;;;5033921;28;20495;-57
2023/05/01 06:36:11;;;;;;;16.13;14.53;;;;;;;;;;5034163;28;20444;-57
2023/05/01 06:38:37;;;;;;;17.13;15.40;;;;;;;;;;5033849;28;20426;-57
2023/05/01 06:41:04;;;;;;;24.03;17.23;;;;;;;;;;5034170;28;20963;-57
2023/05/01 06:43:30;;;;;;;18.83;16.60;;;;;;;;;;5034004;28;20418;-58
2023/05/01 06:45:56;;;;;;;18.70;15.97;;;;;;;;;;5034070;28;20435;-58
2023/05/01 06:48:23;;;;;;;16.33;14.87;;;;;;;;;;5033911;28;20412;-57
2023/05/01 06:50:49;;;;;;;15.67;14.17;;;;;;;;;;5033796;28;20419;-57
2023/05/01 06:53:15;;;;;;;17.73;16.00;;;;;;;;;;5033683;28;20466;-58
2023/05/01 06:55:41;;;;;;;18.63;16.67;;;;;;;;;;5033740;28;20438;-57
2023/05/01 06:58:07;;;;;;;16.40;14.67;;;;;;;;;;5033713;28;20434;-57
2023/05/01 07:00:36;;;;;;;15.67;14.27;;;;;;;;;;5033637;28;20861;-58
2023/05/01 07:03:04;;;;;;;16.63;15.13;;;;;;;;;;5032295;28;20497;-58
2023/05/01 07:05:30;;;;;;;17.57;14.80;;;;;;;;;;5033530;28;20415;-58
2023/05/01 07:07:56;;;;;;;19.10;17.20;;;;;;;;;;5032982;28;20440;-57
2023/05/01 07:10:22;;;;;;;19.10;17.30;;;;;;;;;;5033498;28;20431;-58
2023/05/01 07:12:48;;;;;;;19.07;17.27;;;;;;;;;;5033866;28;20475;-58
2023/05/01 07:15:15;;;;;;;18.87;16.90;;;;;;;;;;5033677;28;20426;-57
2023/05/01 07:17:41;;;;;;;20.10;17.77;;;;;;;;;;5033700;28;20833;-57
2023/05/01 07:20:07;;;;;;;20.23;18.10;;;;;;;;;;5033606;28;20426;-58
2023/05/01 07:22:36;;;;;;;19.63;17.63;;;;;;;;;;5033558;28;20416;-57
2023/05/01 07:25:02;;;;;;;18.33;16.60;;;;;;;;;;5033273;28;20407;-57
2023/05/01 07:27:28;;;;;;;20.13;17.37;;;;;;;;;;5033221;28;20424;-58
2023/05/01 07:29:57;;;;;;;19.40;17.33;;;;;;;;;;5033678;28;20412;-58
2023/05/01 07:32:23;;;;;;;19.80;17.70;;;;;;;;;;5032644;28;20516;-58
2023/05/01 07:34:49;;;;;;;19.20;17.30;;;;;;;;;;5032343;28;20871;-58
2023/05/01 07:37:15;;;;;;;40.03;33.67;;;;;;;;;;5032141;28;20419;-58
2023/05/01 07:39:41;;;;;;;20.23;18.13;;;;;;;;;;5030687;28;20827;-58
2023/05/01 07:42:07;;;;;;;21.20;19.10;;;;;;;;;;5032761;28;20466;-57
2023/05/01 07:44:33;;;;;;;21.90;18.63;;;;;;;;;;5032939;28;20526;-58
2023/05/01 07:47:03;;;;;;;19.50;17.50;;;;;;;;;;5033110;28;20427;-57
2023/05/01 07:49:29;;;;;;;22.13;19.83;;;;;;;;;;5033020;28;20887;-58
2023/05/01 07:51:55;;;;;;;20.00;17.90;;;;;;;;;;5033200;28;20474;-57
2023/05/01 07:54:21;;;;;;;21.03;18.50;;;;;;;;;;5033038;28;20432;-58
2023/05/01 07:56:47;;;;;;;21.20;18.40;;;;;;;;;;5033617;28;20935;-58
2023/05/01 07:59:15;;;;;;;20.63;18.47;;;;;;;;;;5033450;28;20514;-57
2023/05/01 08:01:41;;;;;;;20.40;17.13;;;;;;;;;;5032722;28;20926;-58
2023/05/01 08:04:06;;;;;;;21.07;18.90;;;;;;;;;;5032785;28;20412;-58
2023/05/01 08:06:32;;;;;;;19.50;17.60;;;;;;;;;;5033255;28;20442;-58
2023/05/01 08:08:58;;;;;;;21.20;19.00;;;;;;;;;;5031873;28;20412;-57
2023/05/01 08:11:28;;;;;;;20.03;17.93;;;;;;;;;;5031640;28;20780;-58
2023/05/01 08:13:57;;;;;;;19.63;17.17;;;;;;;;;;5032407;28;20838;-57
2023/05/01 08:16:23;;;;;;;22.60;17.17;;;;;;;;;;5032451;28;20395;-58
2023/05/01 08:18:53;;;;;;;16.63;14.90;;;;;;;;;;5030242;28;20786;-57
2023/05/01 08:21:19;;;;;;;18.03;16.17;;;;;;;;;;5032665;28;20411;-57
2023/05/01 08:23:49;;;;;;;19.13;17.23;;;;;;;;;;5032562;28;20471;-58
2023/05/01 08:26:16;;;;;;;17.63;15.83;;;;;;;;;;5032703;28;20434;-57
2023/05/01 08:28:44;;;;;;;17.00;15.40;;;;;;;;;;5032611;28;20419;-58
2023/05/01 08:31:13;;;;;;;17.20;15.43;;;;;;;;;;5032592;28;20762;-57
2023/05/01 08:33:40;;;;;;;16.67;15.17;;;;;;;;;;5032392;28;20502;-57
2023/05/01 08:36:09;;;;;;;25.33;22.87;;;;;;;;;;5032479;28;20414;-58
2023/05/01 08:38:38;;;;;;;15.20;13.70;;;;;;;;;;5032341;28;20788;-58
2023/05/01 08:41:04;;;;;;;16.70;15.07;;;;;;;;;;5031617;28;20439;-56
2023/05/01 08:43:30;;;;;;;17.57;15.87;;;;;;;;;;5031604;28;20416;-57
2023/05/01 08:46:02;;;;;;;16.23;14.67;;;;;;;;;;5031338;28;20408;-57
2023/05/01 08:48:29;;;;;;;15.20;13.60;;;;;;;;;;5032126;28;20503;-58
2023/05/01 08:50:57;;;;;;;13.87;12.67;;;;;;;;;;5032040;28;20417;-58
2023/05/01 08:53:23;;;;;;;12.10;11.10;;;;;;;;;;5032288;28;20863;-58
2023/05/01 08:55:53;;;;;;;13.67;12.33;;;;;;;;;;5032121;28;20439;-57
2023/05/01 08:58:20;;;;;;;11.07;10.17;;;;;;;;;;5032277;28;20768;-57
2023/05/01 09:00:46;;;;;;;10.60;9.60;;;;;;;;;;5032301;28;20424;-56
2023/05/01 09:03:13;;;;;;;9.77;9.07;;;;;;;;;;5032110;28;20419;-56
2023/05/01 09:05:39;;;;;;;8.47;7.87;;;;;;;;;;5032153;28;20434;-57
2023/05/01 09:08:05;;;;;;;9.60;8.70;;;;;;;;;;5032262;28;20418;-56
2023/05/01 09:10:32;;;;;;;6.40;6.00;;;;;;;;;;5032375;28;20409;-57
2023/05/01 09:13:00;;;;;;;6.47;6.17;;;;;;;;;;5032224;28;20489;-58
2023/05/01 09:15:27;;;;;;;5.90;5.60;;;;;;;;;;5032087;28;20521;-58
2023/05/01 09:17:56;;;;;;;7.47;6.97;;;;;;;;;;5032106;28;20426;-56
2023/05/01 09:20:22;;;;;;;4.43;4.23;;;;;;;;;;5030812;28;20921;-57
2023/05/01 09:22:49;;;;;;;7.70;7.17;;;;;;;;;;5032057;28;20420;-58
2023/05/01 09:25:15;;;;;;;4.37;4.27;;;;;;;;;;5032047;28;20525;-58
2023/05/01 09:27:41;;;;;;;4.27;4.00;;;;;;;;;;5031987;28;20510;-58
2023/05/01 09:30:07;;;;;;;3.23;2.93;;;;;;;;;;5032350;28;20438;-58
2023/05/01 09:32:34;;;;;;;3.30;3.10;;;;;;;;;;5035656;28;20461;-57
2023/05/01 09:35:13;;;;;;;3.63;3.53;;;;;;;;;;5035675;28;20509;-58
2023/05/01 09:37:42;;;;;;;3.23;3.20;;;;;;;;;;5035748;28;20433;-58
2023/05/01 09:40:15;;;;;;;4.17;3.83;;;;;;;;;;5035493;28;20803;-58
2023/05/01 09:42:51;;;;;;;3.50;3.30;;;;;;;;;;5035730;28;20425;-57
2023/05/01 09:45:18;;;;;;;2.97;2.90;;;;;;;;;;5034211;28;20537;-58
2023/05/01 09:47:45;;;;;;;3.50;3.40;;;;;;;;;;5035645;28;20786;-59
2023/05/01 09:50:12;;;;;;;3.63;3.53;;;;;;;;;;5035179;28;20415;-58
2023/05/01 09:52:38;;;;;;;3.60;3.50;;;;;;;;;;5035367;28;20466;-57
2023/05/01 09:55:17;;;;;;;5.90;5.27;;;;;;;;;;5035234;28;20448;-58
2023/05/01 09:57:44;;;;;;;2.73;2.63;;;;;;;;;;5035339;28;20780;-57
2023/05/01 10:00:11;;;;;;;3.00;3.00;;;;;;;;;;5035273;28;20953;-58
2023/05/01 10:02:37;;;;;;;4.43;4.13;;;;;;;;;;5035084;28;20442;-59
2023/05/01 10:05:06;;;;;;;2.57;2.37;;;;;;;;;;5035271;28;20440;-58
2023/05/01 10:07:32;;;;;;;2.50;2.30;;;;;;;;;;5035200;28;20479;-58
2023/05/01 10:09:58;;;;;;;2.77;2.67;;;;;;;;;;5035079;28;20439;-57
2023/05/01 10:12:24;;;;;;;2.27;2.27;;;;;;;;;;5035019;28;21032;-58
2023/05/01 10:14:54;;;;;;;2.00;2.00;;;;;;;;;;5035104;28;20410;-58
2023/05/01 10:17:20;;;;;;;2.47;2.40;;;;;;;;;;5035203;28;20416;-58
2023/05/01 10:19:46;;;;;;;2.40;2.30;;;;;;;;;;5034883;28;20425;-57
2023/05/01 10:22:13;;;;;;;5.60;2.23;;;;;;;;;;5034907;28;20414;-58
2023/05/01 10:24:39;;;;;;;2.70;2.60;;;;;;;;;;5034713;28;20416;-58
2023/05/01 10:27:06;;;;;;;2.37;2.17;;;;;;;;;;5034796;28;20531;-57
2023/05/01 10:29:35;;;;;;;1.63;1.53;;;;;;;;;;5034630;28;20436;-58
2023/05/01 10:32:05;;;;;;;1.80;1.80;;;;;;;;;;5034494;28;20416;-59
2023/05/01 10:34:35;;;;;;;1.50;1.50;;;;;;;;;;5033288;28;20907;-58
2023/05/01 10:37:04;;;;;;;1.53;1.53;;;;;;;;;;5034547;28;20430;-58
2023/05/01 10:39:31;;;;;;;2.50;2.40;;;;;;;;;;5034547;28;20410;-58
2023/05/01 10:42:03;;;;;;;1.90;1.80;;;;;;;;;;5033453;28;20966;-58
2023/05/01 10:44:30;;;;;;;2.03;2.03;;;;;;;;;;5034363;28;20767;-57
2023/05/01 10:46:58;;;;;;;2.07;2.00;;;;;;;;;;5034427;28;20438;-57
2023/05/01 10:49:24;;;;;;;2.17;2.10;;;;;;;;;;5034301;28;20409;-57
2023/05/01 10:52:02;;;;;;;2.40;2.30;;;;;;;;;;5034406;28;20935;-58
2023/05/01 10:54:28;;;;;;;2.23;2.17;;;;;;;;;;5034632;28;20785;-58
2023/05/01 10:56:56;;;;;;;2.37;2.27;;;;;;;;;;5034266;28;20423;-58
2023/05/01 10:59:24;;;;;;;2.60;2.40;;;;;;;;;;5034083;28;20421;-57
2023/05/01 11:01:53;;;;;;;1.93;1.93;;;;;;;;;;5033924;28;20458;-57
2023/05/01 11:04:18;;;;;;;2.10;2.10;;;;;;;;;;5034402;28;20414;-58
2023/05/01 11:06:59;;;;;;;2.40;2.20;;;;;;;;;;5033925;28;20491;-57
2023/05/01 11:09:41;;;;;;;1.87;1.87;;;;;;;;;;5034081;28;20935;-58
2023/05/01 11:12:08;;;;;;;2.30;2.20;;;;;;;;;;5033882;28;20439;-58
2023/05/01 11:14:53;;;;;;;2.27;2.27;;;;;;;;;;5032607;28;20858;-59
2023/05/01 11:17:37;;;;;;;2.03;2.00;;;;;;;;;;5033876;28;20511;-58
2023/05/01 11:20:04;;;;;;;2.13;2.13;;;;;;;;;;5034197;28;20494;-58
2023/05/01 11:22:30;;;;;;;3.13;3.03;;;;;;;;;;5033461;28;20429;-58
2023/05/01 11:24:56;;;;;;;2.73;2.63;;;;;;;;;;5033582;28;20904;-58
2023/05/01 11:27:23;;;;;;;2.77;2.67;;;;;;;;;;5033751;28;20432;-59
2023/05/01 11:29:49;;;;;;;3.00;2.90;;;;;;;;;;5033525;28;20423;-58
2023/05/01 11:32:19;;;;;;;2.23;2.13;;;;;;;;;;5033729;28;20463;-56
2023/05/01 11:34:46;;;;;;;2.67;2.57;;;;;;;;;;5033415;28;20420;-57
2023/05/01 11:37:14;;;;;;;2.60;2.50;;;;;;;;;;5033472;28;20437;-57
2023/05/01 11:39:47;;;;;;;2.43;2.43;;;;;;;;;;5033355;28;20411;-57
2023/05/01 11:42:15;;;;;;;4.40;4.30;;;;;;;;;;5033305;28;20438;-57
2023/05/01 11:44:43;;;;;;;3.43;3.33;;;;;;;;;;5033152;28;20416;-57
2023/05/01 11:47:09;;;;;;;2.90;2.70;;;;;;;;;;5033153;28;20473;-57
2023/05/01 11:49:35;;;;;;;2.73;2.53;;;;;;;;;;5033322;28;20431;-58
2023/05/01 11:52:01;;;;;;;2.93;2.90;;;;;;;;;;5033480;28;20912;-57
2023/05/01 11:54:28;;;;;;;3.27;3.07;;;;;;;;;;5033111;28;20498;-59
2023/05/01 11:57:00;;;;;;;2.80;2.60;;;;;;;;;;5032292;28;20793;-59
2023/05/01 11:59:26;;;;;;;2.93;2.90;;;;;;;;;;5033112;28;20412;-57
2023/05/01 12:01:52;;;;;;;2.70;2.60;;;;;;;;;;5031624;28;20735;-58
2023/05/01 12:04:26;;;;;;;2.57;2.57;;;;;;;;;;5033042;28;20454;-59
2023/05/01 12:06:52;;;;;;;2.70;2.60;;;;;;;;;;5032919;28;20888;-57
2023/05/01 12:09:19;;;;;;;2.60;2.43;;;;;;;;;;5032790;28;20492;-58
2023/05/01 12:11:51;;;;;;;2.47;2.27;;;;;;;;;;5032837;28;20438;-58
2023/05/01 12:14:18;;;;;;;2.87;2.87;;;;;;;;;;5032608;28;20466;-57
2023/05/01 12:16:47;;;;;;;2.90;2.70;;;;;;;;;;5032734;28;20433;-59
2023/05/01 12:19:14;;;;;;;3.30;3.10;;;;;;;;;;5032853;28;20911;-57
2023/05/01 12:21:40;;;;;;;3.10;3.00;;;;;;;;;;5032740;28;20989;-59
2023/05/01 12:24:15;;;;;;;3.50;3.40;;;;;;;;;;5032613;28;20543;-58
2023/05/01 12:26:41;;;;;;;3.10;3.00;;;;;;;;;;5032660;28;20474;-57
2023/05/01 12:29:10;;;;;;;3.17;2.97;;;;;;;;;;5032564;28;20906;-58
2023/05/01 12:31:37;;;;;;;3.10;3.00;;;;;;;;;;5032608;28;20526;-58
2023/05/01 12:34:04;;;;;;;3.70;3.50;;;;;;;;;;5032330;28;20470;-59
2023/05/01 12:36:31;;;;;;;3.40;3.10;;;;;;;;;;5032522;28;20462;-59
2023/05/01 12:38:57;;;;;;;3.93;3.77;;;;;;;;;;5032519;28;20426;-56
2023/05/01 12:41:36;;;;;;;3.40;3.30;;;;;;;;;;5031153;28;20429;-58
2023/05/01 12:44:02;;;;;;;6.93;3.07;;;;;;;;;;5032525;28;20425;-58
2023/05/01 12:46:29;;;;;;;3.10;3.00;;;;;;;;;;5032314;28;20428;-58
2023/05/01 12:48:55;;;;;;;7.00;3.13;;;;;;;;;;5032293;28;20437;-58
2023/05/01 12:51:23;;;;;;;3.03;3.03;;;;;;;;;;5032463;28;20446;-58
2023/05/01 12:53:50;;;;;;;3.17;3.07;;;;;;;;;;5032279;28;20525;-58
2023/05/01 12:56:23;;;;;;;2.80;2.70;;;;;;;;;;5032392;28;20429;-57
2023/05/01 12:58:50;;;;;;;3.60;3.47;;;;;;;;;;5032463;28;20777;-58
2023/05/01 13:01:28;;;;;;;3.40;3.30;;;;;;;;;;5032451;28;20891;-56
2023/05/01 13:03:56;;;;;;;3.90;3.70;;;;;;;;;;5032353;28;20478;-58
2023/05/01 13:06:31;;;;;;;5.43;3.13;;;;;;;;;;5034783;28;20445;-58
2023/05/01 13:09:07;;;;;;;3.53;3.53;;;;;;;;;;5036216;28;20407;-58
2023/05/01 13:11:33;;;;;;;3.43;3.33;;;;;;;;;;5036420;28;20503;-58
2023/05/01 13:14:06;;;;;;;3.43;3.37;;;;;;;;;;5036115;28;20474;-58
2023/05/01 13:16:32;;;;;;;3.27;3.20;;;;;;;;;;5036211;28;20484;-58
2023/05/01 13:18:58;;;;;;;3.73;3.63;;;;;;;;;;5035995;28;20414;-58
2023/05/01 13:21:25;;;;;;;3.67;3.47;;;;;;;;;;5035798;28;20431;-58
2023/05/01 13:23:56;;;;;;;3.37;3.27;;;;;;;;;;5036008;28;20496;-58
2023/05/01 13:26:27;;;;;;;3.40;3.40;;;;;;;;;;5035970;28;20932;-56
2023/05/01 13:28:56;;;;;;;3.67;3.47;;;;;;;;;;5035833;28;20465;-56
2023/05/01 13:31:22;;;;;;;3.80;3.70;;;;;;;;;;5035825;28;20505;-57
2023/05/01 13:33:52;;;;;;;3.40;3.17;;;;;;;;;;5035476;28;20559;-58
2023/05/01 13:36:18;;;;;;;4.13;3.67;;;;;;;;;;5035674;28;20427;-58
2023/05/01 13:38:54;;;;;;;3.47;3.37;;;;;;;;;;5035691;28;20896;-58
2023/05/01 13:41:24;;;;;;;3.10;3.00;;;;;;;;;;5035928;28;20444;-58
2023/05/01 13:43:53;;;;;;;3.10;3.00;;;;;;;;;;5035695;28;20921;-58
2023/05/01 13:46:23;;;;;;;3.47;3.37;;;;;;;;;;5034289;28;20504;-58
2023/05/01 13:48:49;;;;;;;3.70;3.60;;;;;;;;;;5035288;28;20940;-58
2023/05/01 13:51:20;;;;;;;3.47;3.17;;;;;;;;;;5035536;28;20489;-58
2023/05/01 13:53:47;;;;;;;7.53;3.53;;;;;;;;;;5035356;28;20844;-58
2023/05/01 13:56:14;;;;;;;3.57;3.47;;;;;;;;;;5035245;28;20427;-58
2023/05/01 13:58:40;;;;;;;3.83;3.63;;;;;;;;;;5035237;28;20404;-59
2023/05/01 14:01:09;;;;;;;3.83;3.73;;;;;;;;;;5035123;28;20416;-58
2023/05/01 14:03:40;;;;;;;3.60;3.50;;;;;;;;;;5035180;28;20451;-59
2023/05/01 14:06:08;;;;;;;4.50;4.30;;;;;;;;;;5034965;28;20440;-58
2023/05/01 14:08:34;;;;;;;5.30;5.00;;;;;;;;;;5034770;28;20463;-56
2023/05/01 14:11:03;;;;;;;3.50;3.40;;;;;;;;;;5035033;28;20441;-56
2023/05/01 14:13:29;;;;;;;4.00;3.70;;;;;;;;;;5034842;28;20562;-57
2023/05/01 14:15:55;;;;;;;3.50;3.40;;;;;;;;;;5034822;28;20424;-56
2023/05/01 14:18:21;;;;;;;3.60;3.50;;;;;;;;;;5033241;28;20425;-57
2023/05/01 14:20:47;;;;;;;3.90;3.60;;;;;;;;;;5034812;28;20857;-58
2023/05/01 14:23:19;;;;;;;3.83;3.50;;;;;;;;;;5034507;28;20479;-57
2023/05/01 14:25:48;;;;;;;3.90;3.70;;;;;;;;;;5034635;28;20449;-57
2023/05/01 14:28:14;;;;;;;4.10;3.53;;;;;;;;;;5034579;28;20435;-56
2023/05/01 14:30:40;;;;;;;3.97;3.70;;;;;;;;;;5034793;28;20479;-58
2023/05/01 14:33:10;;;;;;;3.40;3.30;;;;;;;;;;5034618;28;20942;-57
2023/05/01 14:35:37;;;;;;;5.80;3.93;;;;;;;;;;5034728;28;20416;-58
2023/05/01 14:38:13;;;;;;;3.57;3.47;;;;;;;;;;5034551;28;20435;-58